Time;durP1;ratioP1;P1;durP2;ratioP2;P2;SDS_P1;SDS_P2;PMS_P1;PMS_P2;Temp;Humidity;BMP_temperature;BMP_pressure;BME280_temperature;BME280_humidity;BME280_pressure;Samples;Min_cycle;Max_cycle;Signal;HPM_P1;HPM_P2
2021/08/26 00:07:06;;;;;;;8.88;6.80;;;15.10;82.00;;;;;;5073536;28;20214;-83
2021/08/26 00:09:34;;;;;;;10.85;7.80;;;15.10;83.00;;;;;;5075176;28;20256;-83
2021/08/26 00:12:01;;;;;;;7.55;6.57;;;15.10;82.40;;;;;;5077610;28;20229;-82
2021/08/26 00:14:28;;;;;;;10.52;7.60;;;15.10;82.30;;;;;;5076228;28;20241;-86
2021/08/26 00:16:55;;;;;;;9.88;7.45;;;15.10;81.80;;;;;;5078896;28;20201;-84
2021/08/26 00:19:24;;;;;;;7.80;6.30;;;15.10;80.90;;;;;;5076519;28;20195;-82
2021/08/26 00:21:51;;;;;;;8.45;7.22;;;15.00;80.80;;;;;;5071852;28;20206;-83
2021/08/26 00:24:17;;;;;;;8.20;6.65;;;15.00;80.80;;;;;;5062790;28;20253;-82
2021/08/26 00:26:44;;;;;;;7.10;6.40;;;15.00;81.80;;;;;;5061377;28;20262;-81
2021/08/26 00:29:11;;;;;;;13.23;7.70;;;15.10;80.90;;;;;;5060681;28;20254;-81
2021/08/26 00:31:38;;;;;;;9.00;7.18;;;15.10;80.90;;;;;;5071773;28;20201;-86
2021/08/26 00:34:05;;;;;;;10.60;7.40;;;15.10;80.90;;;;;;5071069;28;20233;-83
2021/08/26 00:36:33;;;;;;;10.07;7.03;;;15.10;80.90;;;;;;5073617;28;20564;-82
2021/08/26 00:39:00;;;;;;;10.97;7.30;;;15.00;80.80;;;;;;5075979;28;20301;-82
2021/08/26 00:41:27;;;;;;;12.33;7.77;;;15.00;80.80;;;;;;5061044;28;20461;-81
2021/08/26 00:43:54;;;;;;;10.13;7.20;;;15.10;80.90;;;;;;5059615;28;20482;-81
2021/08/26 00:46:21;;;;;;;8.95;6.10;;;15.10;80.90;;;;;;5059192;28;20642;-81
2021/08/26 00:48:49;;;;;;;7.67;6.30;;;15.10;80.90;;;;;;5059998;28;20256;-82
2021/08/26 00:51:17;;;;;;;8.65;6.75;;;15.10;81.00;;;;;;5063941;28;20477;-81
2021/08/26 00:53:47;;;;;;;11.32;6.78;;;15.00;80.80;;;;;;5063654;28;20226;-82
2021/08/26 00:56:15;;;;;;;10.90;7.35;;;15.00;80.80;;;;;;5060786;28;20198;-81
2021/08/26 00:58:44;;;;;;;9.63;7.30;;;15.00;80.80;;;;;;5063118;28;20230;-82
2021/08/26 01:01:12;;;;;;;7.30;6.15;;;15.00;80.80;;;;;;5062767;28;20234;-81
2021/08/26 01:03:45;;;;;;;9.68;7.18;;;14.90;80.70;;;;;;5062965;28;20214;-81
2021/08/26 01:06:16;;;;;;;8.65;7.35;;;14.90;80.70;;;;;;5059352;28;20651;-81
2021/08/26 01:08:52;;;;;;;8.25;7.20;;;14.80;80.60;;;;;;5057747;28;20253;-80
2021/08/26 01:11:22;;;;;;;10.82;6.75;;;14.80;80.60;;;;;;5056403;28;20203;-80
2021/08/26 01:13:52;;;;;;;11.80;7.75;;;14.80;80.70;;;;;;5056572;28;20677;-81
2021/08/26 01:16:20;;;;;;;11.02;7.00;;;14.80;80.60;;;;;;5057116;28;20256;-81
2021/08/26 01:18:48;;;;;;;8.38;6.40;;;14.80;80.60;;;;;;5056971;28;20230;-80
2021/08/26 01:21:16;;;;;;;9.55;7.07;;;14.80;80.60;;;;;;5058021;28;20634;-81
2021/08/26 01:23:47;;;;;;;8.90;7.18;;;14.80;80.60;;;;;;5059046;28;20226;-81
2021/08/26 01:26:20;;;;;;;8.25;6.78;;;14.80;80.60;;;;;;5058574;28;20271;-81
2021/08/26 01:28:50;;;;;;;8.73;6.80;;;14.70;80.50;;;;;;5058047;28;20264;-83
2021/08/26 01:31:18;;;;;;;9.48;7.35;;;14.70;80.50;;;;;;5057822;28;20550;-79
2021/08/26 01:33:48;;;;;;;8.15;6.82;;;14.70;81.20;;;;;;5056779;28;20227;-80
2021/08/26 01:36:16;;;;;;;7.32;6.63;;;14.70;80.70;;;;;;5058126;28;20244;-81
2021/08/26 01:38:44;;;;;;;8.80;7.00;;;14.70;81.40;;;;;;5058265;28;20313;-79
2021/08/26 01:41:12;;;;;;;9.05;7.15;;;14.70;80.50;;;;;;5061275;28;20205;-81
2021/08/26 01:43:43;;;;;;;8.88;6.60;;;14.60;80.70;;;;;;5063913;28;20218;-81
2021/08/26 01:46:09;;;;;;;11.90;7.40;;;14.60;80.50;;;;;;5063513;28;20241;-81
2021/08/26 01:48:36;;;;;;;8.93;6.60;;;14.70;80.50;;;;;;5057077;28;20237;-82
2021/08/26 01:51:04;;;;;;;10.65;6.78;;;14.60;80.50;;;;;;5058370;28;20213;-81
2021/08/26 01:53:31;;;;;;;9.55;6.88;;;14.60;80.50;;;;;;5061886;28;20234;-80
2021/08/26 01:55:58;;;;;;;8.43;6.75;;;14.60;80.50;;;;;;5073913;28;20225;-84
2021/08/26 01:58:25;;;;;;;8.13;6.38;;;14.60;80.50;;;;;;5076256;28;20205;-83
2021/08/26 02:00:53;;;;;;;9.75;7.65;;;14.60;80.50;;;;;;5075249;28;20246;-82
2021/08/26 02:03:20;;;;;;;11.18;7.60;;;14.50;80.40;;;;;;5070737;28;20219;-81
2021/08/26 02:05:47;;;;;;;10.70;7.65;;;14.50;81.00;;;;;;5059875;28;20237;-80
2021/08/26 02:08:14;;;;;;;16.70;8.43;;;14.50;80.60;;;;;;5067769;28;20221;-83
2021/08/26 02:10:41;;;;;;;7.90;6.45;;;14.50;82.50;;;;;;5076836;28;20203;-83
2021/08/26 02:13:08;;;;;;;8.23;7.30;;;14.60;81.70;;;;;;5077122;28;20218;-85
2021/08/26 02:15:35;;;;;;;9.93;7.20;;;14.60;81.30;;;;;;5077448;28;20175;-83
2021/08/26 02:18:03;;;;;;;14.07;7.18;;;14.70;80.50;;;;;;5057957;28;20198;-81
2021/08/26 02:20:30;;;;;;;9.63;6.40;;;14.80;80.60;;;;;;5058149;28;20199;-80
2021/08/26 02:22:57;;;;;;;8.95;6.95;;;14.90;79.50;;;;;;5058514;28;20305;-81
2021/08/26 02:25:24;;;;;;;9.27;7.03;;;14.90;79.10;;;;;;5055656;28;20201;-81
2021/08/26 02:27:51;;;;;;;8.48;6.55;;;14.90;79.00;;;;;;5055911;28;20229;-80
2021/08/26 02:30:17;;;;;;;8.13;6.40;;;14.90;78.10;;;;;;5055897;28;20262;-80
2021/08/26 02:32:44;;;;;;;9.45;6.72;;;15.00;77.30;;;;;;5065769;28;20300;-81
2021/08/26 02:35:13;;;;;;;10.63;6.72;;;15.00;76.90;;;;;;5058664;28;20217;-82
2021/08/26 02:37:40;;;;;;;7.70;6.90;;;15.10;76.10;;;;;;5066798;28;20237;-82
2021/08/26 02:40:08;;;;;;;9.27;6.85;;;15.10;75.90;;;;;;5057676;28;20674;-80
2021/08/26 02:42:35;;;;;;;8.57;6.38;;;15.20;75.50;;;;;;5055864;28;20286;-81
2021/08/26 02:45:02;;;;;;;7.05;6.35;;;15.10;75.00;;;;;;5055663;28;20714;-79
2021/08/26 02:47:29;;;;;;;8.60;7.13;;;15.10;75.10;;;;;;5080634;28;20261;-80
2021/08/26 02:49:56;;;;;;;7.63;6.88;;;15.10;75.20;;;;;;5084774;28;20210;-81
2021/08/26 02:52:24;;;;;;;7.85;6.78;;;15.00;75.00;;;;;;5073465;28;20202;-84
2021/08/26 02:54:51;;;;;;;8.25;7.13;;;15.00;75.20;;;;;;5076217;28;20254;-84
2021/08/26 02:57:18;;;;;;;7.93;6.70;;;14.90;75.60;;;;;;5077101;28;20256;-82
2021/08/26 02:59:45;;;;;;;8.63;6.75;;;15.00;75.80;;;;;;5068348;28;20214;-82
2021/08/26 03:02:12;;;;;;;9.10;6.40;;;15.00;75.30;;;;;;5063577;28;20206;-80
2021/08/26 03:04:39;;;;;;;7.57;6.18;;;15.00;75.60;;;;;;5061097;28;20219;-80
2021/08/26 03:07:06;;;;;;;7.85;6.43;;;14.90;76.00;;;;;;5054532;28;20294;-80
2021/08/26 03:09:34;;;;;;;8.88;6.55;;;15.00;75.80;;;;;;5072329;28;20232;-81
2021/08/26 03:12:01;;;;;;;8.63;7.15;;;15.00;75.00;;;;;;5074608;28;20202;-80
2021/08/26 03:14:28;;;;;;;8.65;7.50;;;15.00;75.00;;;;;;5075006;28;20754;-81
2021/08/26 03:16:55;;;;;;;10.63;7.00;;;14.90;75.20;;;;;;5077002;28;20288;-82
2021/08/26 03:19:22;;;;;;;9.25;7.30;;;14.90;75.80;;;;;;5088904;28;20250;-81
2021/08/26 03:21:49;;;;;;;10.10;6.93;;;14.90;75.60;;;;;;5089128;28;20241;-81
2021/08/26 03:24:16;;;;;;;7.50;6.80;;;14.80;75.90;;;;;;5069742;28;20219;-80
2021/08/26 03:26:44;;;;;;;8.05;6.30;;;14.80;76.30;;;;;;5065827;28;20233;-82
2021/08/26 03:29:12;;;;;;;9.48;7.45;;;14.70;76.20;;;;;;5077966;28;20257;-81
2021/08/26 03:31:38;;;;;;;10.27;7.25;;;14.70;76.50;;;;;;5080005;28;20206;-80
2021/08/26 03:34:05;;;;;;;7.40;6.60;;;14.70;76.60;;;;;;5072760;28;20252;-81
2021/08/26 03:36:32;;;;;;;8.32;7.03;;;14.60;77.20;;;;;;5060803;28;20548;-80
2021/08/26 03:38:59;;;;;;;9.10;7.35;;;14.60;78.30;;;;;;5076967;28;20202;-80
2021/08/26 03:41:26;;;;;;;9.27;7.43;;;14.60;77.90;;;;;;5080488;28;20209;-80
2021/08/26 03:43:55;;;;;;;9.00;6.90;;;14.60;77.70;;;;;;5079894;28;20229;-80
2021/08/26 03:46:22;;;;;;;9.38;7.43;;;14.60;77.90;;;;;;5079751;28;20233;-80
2021/08/26 03:48:48;;;;;;;10.30;7.30;;;14.60;78.70;;;;;;5069984;28;20205;-80
2021/08/26 03:51:15;;;;;;;10.63;7.53;;;14.60;79.70;;;;;;5059832;28;20248;-81
2021/08/26 03:53:42;;;;;;;10.40;7.25;;;14.60;79.70;;;;;;5079760;28;20218;-81
2021/08/26 03:56:09;;;;;;;8.52;7.15;;;14.60;79.10;;;;;;5070931;28;20658;-81
2021/08/26 03:58:36;;;;;;;12.43;8.18;;;14.60;79.50;;;;;;5059812;28;20310;-81
2021/08/26 04:01:05;;;;;;;7.53;6.40;;;14.60;79.80;;;;;;5058382;28;20284;-80
2021/08/26 04:03:33;;;;;;;9.70;7.50;;;14.60;80.50;;;;;;5068682;28;20265;-81
2021/08/26 04:06:00;;;;;;;9.18;7.07;;;14.50;80.40;;;;;;5080779;28;20233;-83
2021/08/26 04:08:27;;;;;;;10.57;7.53;;;14.50;80.40;;;;;;5079326;28;20245;-80
2021/08/26 04:10:54;;;;;;;7.88;6.60;;;14.60;80.50;;;;;;5070169;28;20320;-81
2021/08/26 04:13:21;;;;;;;9.63;8.10;;;14.60;80.50;;;;;;5065012;28;20238;-81
2021/08/26 04:15:49;;;;;;;9.98;7.55;;;14.50;80.40;;;;;;5071380;28;20256;-80
2021/08/26 04:18:17;;;;;;;9.43;6.68;;;14.60;80.50;;;;;;5083502;28;20232;-81
2021/08/26 04:20:44;;;;;;;8.68;7.47;;;14.60;80.50;;;;;;5092164;28;20491;-80
2021/08/26 04:23:12;;;;;;;9.00;7.20;;;14.60;80.50;;;;;;5084261;28;20586;-81
2021/08/26 04:25:39;;;;;;;8.18;7.38;;;14.50;80.40;;;;;;5086985;28;20198;-82
2021/08/26 04:28:07;;;;;;;7.43;6.63;;;14.50;80.40;;;;;;5078635;28;20182;-83
2021/08/26 04:30:34;;;;;;;9.40;7.55;;;14.50;80.40;;;;;;5097172;28;20233;-82
2021/08/26 04:33:02;;;;;;;9.35;7.70;;;14.50;80.40;;;;;;5077608;28;20250;-82
2021/08/26 04:35:30;;;;;;;10.13;7.53;;;14.50;80.40;;;;;;5070864;28;20248;-82
2021/08/26 04:37:57;;;;;;;8.50;7.63;;;14.50;80.60;;;;;;5069614;28;20214;-82
2021/08/26 04:40:24;;;;;;;10.48;7.18;;;14.40;82.30;;;;;;5066552;28;20203;-82
2021/08/26 04:42:51;;;;;;;10.85;8.10;;;14.40;83.30;;;;;;5064097;28;20576;-82
2021/08/26 04:45:18;;;;;;;9.95;8.10;;;14.50;82.40;;;;;;5065779;28;20214;-82
2021/08/26 04:47:45;;;;;;;9.98;7.93;;;14.60;82.00;;;;;;5066853;28;20203;-82
2021/08/26 04:50:12;;;;;;;9.60;7.60;;;14.50;81.30;;;;;;5064748;28;20242;-82
2021/08/26 04:52:41;;;;;;;12.25;7.72;;;14.50;82.30;;;;;;5063761;28;20297;-81
2021/08/26 04:55:08;;;;;;;10.15;7.88;;;14.50;82.80;;;;;;5067675;28;20241;-80
2021/08/26 04:57:36;;;;;;;8.10;7.30;;;14.50;83.40;;;;;;5066270;28;20206;-80
2021/08/26 05:00:03;;;;;;;10.80;8.32;;;14.50;83.30;;;;;;5065900;28;20230;-81
2021/08/26 05:02:30;;;;;;;11.35;7.50;;;14.50;82.90;;;;;;5063239;28;20236;-82
2021/08/26 05:04:57;;;;;;;11.13;7.65;;;14.50;83.70;;;;;;5062185;28;20253;-79
2021/08/26 05:07:24;;;;;;;10.88;8.25;;;14.50;84.60;;;;;;5062879;28;20198;-80
2021/08/26 05:09:53;;;;;;;12.82;8.77;;;14.60;84.80;;;;;;5061841;28;20291;-81
2021/08/26 05:12:19;;;;;;;11.75;8.27;;;14.60;84.60;;;;;;5060291;28;20698;-79
2021/08/26 05:14:47;;;;;;;8.48;7.47;;;14.70;84.30;;;;;;5070787;28;20744;-78
2021/08/26 05:17:13;;;;;;;8.93;7.55;;;14.70;84.00;;;;;;5065841;28;20551;-80
2021/08/26 05:19:40;;;;;;;8.95;8.02;;;14.70;83.30;;;;;;5075956;28;20190;-79
2021/08/26 05:22:07;;;;;;;11.35;8.55;;;14.90;83.10;;;;;;5076728;28;20256;-80
2021/08/26 05:24:34;;;;;;;9.90;8.30;;;14.90;81.50;;;;;;5057709;28;20222;-79
2021/08/26 05:27:03;;;;;;;9.75;7.97;;;15.00;80.80;;;;;;5058200;28;20716;-79
2021/08/26 05:29:30;;;;;;;10.60;8.17;;;15.00;80.80;;;;;;5059981;28;20222;-79
2021/08/26 05:31:57;;;;;;;8.70;7.77;;;15.10;80.90;;;;;;5070443;28;20460;-81
2021/08/26 05:34:24;;;;;;;13.32;8.05;;;15.20;79.80;;;;;;5068713;28;20476;-81
2021/08/26 05:36:51;;;;;;;9.77;8.00;;;15.20;79.40;;;;;;5065112;28;20229;-80
2021/08/26 05:39:18;;;;;;;9.55;8.40;;;15.30;78.70;;;;;;5065997;28;20571;-80
2021/08/26 05:41:45;;;;;;;11.38;7.70;;;15.30;78.50;;;;;;5067113;28;20203;-81
2021/08/26 05:44:15;;;;;;;8.90;8.00;;;15.30;78.40;;;;;;5068840;28;20231;-80
2021/08/26 05:46:43;;;;;;;13.13;8.90;;;15.20;78.80;;;;;;5069403;28;20209;-80
2021/08/26 05:49:10;;;;;;;9.65;8.27;;;15.20;78.50;;;;;;5069929;28;20207;-79
2021/08/26 05:51:38;;;;;;;12.55;8.65;;;15.30;79.00;;;;;;5072622;28;20218;-81
2021/08/26 05:54:05;;;;;;;10.55;7.97;;;15.30;78.80;;;;;;5077183;28;20227;-81
2021/08/26 05:56:33;;;;;;;9.00;8.00;;;15.30;79.20;;;;;;5077505;28;20198;-79
2021/08/26 05:59:00;;;;;;;9.05;8.10;;;15.40;79.10;;;;;;5077068;28;20191;-79
2021/08/26 06:01:30;;;;;;;10.38;8.00;;;15.40;78.90;;;;;;5077197;28;20178;-79
2021/08/26 06:03:57;;;;;;;13.07;9.07;;;15.50;78.70;;;;;;5077072;28;20261;-80
2021/08/26 06:06:24;;;;;;;11.15;9.05;;;15.50;78.10;;;;;;5076884;28;20191;-80
2021/08/26 06:08:51;;;;;;;11.40;8.53;;;15.50;77.70;;;;;;5072602;28;20202;-81
2021/08/26 06:11:18;;;;;;;9.90;7.70;;;15.60;77.00;;;;;;5061551;28;20480;-80
2021/08/26 06:13:45;;;;;;;12.20;8.17;;;15.50;77.30;;;;;;5061559;28;20977;-80
2021/08/26 06:16:12;;;;;;;10.52;8.43;;;15.40;77.90;;;;;;5062307;28;20518;-79
2021/08/26 06:18:40;;;;;;;11.73;9.00;;;15.40;78.40;;;;;;5062204;28;20713;-80
2021/08/26 06:21:10;;;;;;;13.32;9.38;;;15.30;78.00;;;;;;5065284;28;20681;-80
2021/08/26 06:23:37;;;;;;;12.57;8.38;;;15.20;78.60;;;;;;5072256;28;20257;-79
2021/08/26 06:26:04;;;;;;;9.80;8.60;;;15.20;79.30;;;;;;5070318;28;20209;-79
2021/08/26 06:28:31;;;;;;;10.05;8.10;;;15.10;79.90;;;;;;5068903;28;20459;-80
2021/08/26 06:30:58;;;;;;;14.93;8.23;;;15.20;80.00;;;;;;5067905;28;20258;-84
2021/08/26 06:33:25;;;;;;;12.52;8.20;;;15.40;79.10;;;;;;5064062;28;20234;-83
2021/08/26 06:35:53;;;;;;;10.35;8.18;;;15.40;78.40;;;;;;5065802;28;20264;-82
2021/08/26 06:38:20;;;;;;;14.77;8.48;;;15.50;77.50;;;;;;5065783;28;20211;-82
2021/08/26 06:40:47;;;;;;;10.90;8.97;;;15.60;77.40;;;;;;5073111;28;20198;-83
2021/08/26 06:43:14;;;;;;;11.23;9.35;;;15.60;76.90;;;;;;5072480;28;20453;-83
2021/08/26 06:45:41;;;;;;;12.10;8.70;;;15.60;77.60;;;;;;5073313;28;20260;-82
2021/08/26 06:48:08;;;;;;;10.60;8.60;;;15.70;77.50;;;;;;5073354;28;20453;-81
2021/08/26 06:50:35;;;;;;;11.10;8.90;;;15.60;77.60;;;;;;5074007;28;20872;-81
2021/08/26 06:53:03;;;;;;;10.90;9.23;;;15.60;77.50;;;;;;5076361;28;20449;-82
2021/08/26 06:55:30;;;;;;;10.23;8.68;;;15.60;77.50;;;;;;5077541;28;20471;-82
2021/08/26 06:57:57;;;;;;;10.70;8.80;;;15.60;78.50;;;;;;5077096;28;20198;-82
2021/08/26 07:00:24;;;;;;;11.27;9.37;;;15.60;78.00;;;;;;5077171;28;20425;-83
2021/08/26 07:02:52;;;;;;;9.60;8.20;;;15.60;78.60;;;;;;5077212;28;20453;-83
2021/08/26 07:05:19;;;;;;;9.50;8.60;;;15.50;80.10;;;;;;5078462;28;20209;-83
2021/08/26 07:07:46;;;;;;;14.90;9.57;;;15.50;81.30;;;;;;5081436;28;20210;-81
2021/08/26 07:10:14;;;;;;;11.27;8.53;;;15.40;82.80;;;;;;5081008;28;20473;-83
2021/08/26 07:12:41;;;;;;;11.15;9.50;;;15.40;85.30;;;;;;5079718;28;20441;-80
2021/08/26 07:15:09;;;;;;;15.02;10.48;;;15.40;87.30;;;;;;5094166;28;20205;-85
2021/08/26 07:17:37;;;;;;;12.30;10.00;;;15.40;87.90;;;;;;5083087;28;20202;-84
2021/08/26 07:20:05;;;;;;;11.10;9.60;;;15.40;89.60;;;;;;5085160;28;20487;-85
2021/08/26 07:22:31;;;;;;;11.35;10.10;;;15.30;89.50;;;;;;5101117;28;20193;-86
2021/08/26 07:24:58;;;;;;;12.77;9.70;;;15.20;90.50;;;;;;5092958;28;20221;-83
2021/08/26 07:27:27;;;;;;;10.93;9.63;;;15.20;91.60;;;;;;5080698;28;20190;-84
2021/08/26 07:29:54;;;;;;;11.32;10.13;;;15.30;91.80;;;;;;5081064;28;20206;-85
2021/08/26 07:32:21;;;;;;;13.13;10.20;;;15.20;91.90;;;;;;5085665;28;20199;-86
2021/08/26 07:34:48;;;;;;;13.13;11.02;;;15.30;92.50;;;;;;5080379;28;20206;-84
2021/08/26 07:37:14;;;;;;;12.80;10.98;;;15.30;93.20;;;;;;5080925;28;20202;-88
2021/08/26 07:39:41;;;;;;;15.27;11.60;;;15.20;94.30;;;;;;5080474;28;20232;-84
2021/08/26 07:42:08;;;;;;;13.60;11.75;;;15.30;95.10;;;;;;5087862;28;20186;-87
2021/08/26 07:44:37;;;;;;;14.57;11.73;;;15.40;96.50;;;;;;5114004;28;20241;-85
2021/08/26 07:47:04;;;;;;;14.77;12.52;;;15.30;95.30;;;;;;5068870;28;20199;-85
2021/08/26 07:49:32;;;;;;;14.25;11.88;;;15.20;96.00;;;;;;5085376;28;20232;-87
2021/08/26 07:51:59;;;;;;;13.25;11.73;;;15.10;96.30;;;;;;5086645;28;20526;-86
2021/08/26 07:54:26;;;;;;;13.45;12.00;;;15.20;97.40;;;;;;5089247;28;20230;-87
2021/08/26 07:56:53;;;;;;;16.55;13.40;;;15.10;97.70;;;;;;5094382;28;20198;-88
2021/08/26 07:59:20;;;;;;;15.65;13.98;;;14.90;97.60;;;;;;5095000;28;20225;-87
2021/08/26 08:01:48;;;;;;;13.70;12.30;;;14.90;98.80;;;;;;5088721;28;20202;-86
2021/08/26 08:04:15;;;;;;;14.40;13.00;;;14.90;99.90;;;;;;5080813;28;20256;-86
2021/08/26 08:06:42;;;;;;;21.27;12.88;;;15.00;99.90;;;;;;5083127;28;20225;-85
2021/08/26 08:09:09;;;;;;;18.00;14.40;;;14.90;99.90;;;;;;5083533;28;20670;-84
2021/08/26 08:11:36;;;;;;;14.32;13.02;;;14.90;99.90;;;;;;5086811;28;20244;-85
2021/08/26 08:14:03;;;;;;;18.13;14.50;;;14.90;99.90;;;;;;5097588;28;20230;-88
2021/08/26 08:16:31;;;;;;;13.63;12.32;;;14.90;99.90;;;;;;5096824;28;20232;-85
2021/08/26 08:18:59;;;;;;;18.15;13.85;;;14.80;99.90;;;;;;5099017;28;20186;-87
2021/08/26 08:21:27;;;;;;;15.25;13.55;;;14.80;99.90;;;;;;5100201;28;20198;-86
2021/08/26 08:23:53;;;;;;;16.42;14.73;;;14.90;99.90;;;;;;5093387;28;20233;-86
2021/08/26 08:26:20;;;;;;;17.83;14.32;;;14.90;99.90;;;;;;5083088;28;20210;-84
2021/08/26 08:28:47;;;;;;;18.58;14.77;;;14.90;99.90;;;;;;5084335;28;20229;-85
2021/08/26 08:31:14;;;;;;;16.75;15.15;;;14.80;99.90;;;;;;5083848;28;20244;-85
2021/08/26 08:33:44;;;;;;;17.60;15.77;;;14.90;99.90;;;;;;5084336;28;20783;-84
2021/08/26 08:36:12;;;;;;;17.80;15.65;;;14.90;99.90;;;;;;5084706;28;20216;-86
2021/08/26 08:38:39;;;;;;;16.63;14.80;;;14.90;99.90;;;;;;5084389;28;20213;-86
2021/08/26 08:41:07;;;;;;;16.63;14.45;;;14.90;99.90;;;;;;5083925;28;20201;-85
2021/08/26 08:43:35;;;;;;;15.70;14.05;;;14.90;99.90;;;;;;5084308;28;20225;-86
2021/08/26 08:46:03;;;;;;;15.90;14.30;;;14.90;99.90;;;;;;5084753;28;20271;-84
2021/08/26 08:48:32;;;;;;;16.60;14.30;;;14.90;99.90;;;;;;5083626;28;20248;-84
2021/08/26 08:50:59;;;;;;;15.10;13.50;;;14.80;99.90;;;;;;5086481;28;20229;-84
2021/08/26 08:53:27;;;;;;;16.20;14.05;;;14.70;99.90;;;;;;5089987;28;20243;-86
2021/08/26 08:55:54;;;;;;;15.52;13.88;;;14.70;99.90;;;;;;5082123;28;20227;-81
2021/08/26 08:58:21;;;;;;;15.88;14.15;;;14.80;99.90;;;;;;5090513;28;20223;-87
2021/08/26 09:00:48;;;;;;;14.20;12.70;;;15.00;99.90;;;;;;5081741;28;20203;-83
2021/08/26 09:03:15;;;;;;;14.13;12.73;;;15.10;99.90;;;;;;5063499;28;20258;-82
2021/08/26 09:05:56;;;;;;;12.60;11.40;;;15.20;99.90;;;;;;5062161;28;20230;-84
2021/08/26 09:08:24;;;;;;;13.52;11.30;;;15.20;99.90;;;;;;5075548;28;20201;-80
2021/08/26 09:10:54;;;;;;;10.38;9.38;;;15.20;99.90;;;;;;5077694;28;20222;-82
2021/08/26 09:13:32;;;;;;;11.43;10.23;;;15.10;99.90;;;;;;5085005;28;20236;-80
2021/08/26 09:15:59;;;;;;;10.93;9.93;;;15.00;99.90;;;;;;5086022;28;20604;-81
2021/08/26 09:18:26;;;;;;;11.25;10.13;;;15.10;99.90;;;;;;5067924;28;20259;-83
2021/08/26 09:20:56;;;;;;;11.77;10.48;;;15.00;99.90;;;;;;5065568;28;20730;-83
2021/08/26 09:23:25;;;;;;;10.30;9.40;;;15.00;99.90;;;;;;5083816;28;20253;-82
2021/08/26 09:29:16;;;;;;;10.32;9.43;;;15.00;99.90;;;;;;5092582;28;20300;-86
2021/08/26 09:31:45;;;;;;;9.23;8.40;;;15.20;99.90;;;;;;5084104;28;20237;-80
2021/08/26 09:34:14;;;;;;;10.60;9.57;;;15.40;99.90;;;;;;5081429;28;20237;-82
2021/08/26 09:36:54;;;;;;;9.48;8.50;;;15.40;99.90;;;;;;5081232;28;20201;-81
2021/08/26 09:39:22;;;;;;;10.23;9.25;;;15.60;99.90;;;;;;5069371;28;20202;-80
2021/08/26 09:41:53;;;;;;;11.13;8.23;;;15.70;99.90;;;;;;5063619;28;20202;-80
2021/08/26 09:44:25;;;;;;;9.23;8.32;;;15.70;99.90;;;;;;5063621;28;20207;-84
2021/08/26 09:46:54;;;;;;;8.70;7.82;;;15.70;99.90;;;;;;5071858;28;20213;-82
2021/08/26 09:49:23;;;;;;;9.07;8.03;;;15.80;99.90;;;;;;5071432;28;20253;-82
2021/08/26 09:52:04;;;;;;;9.00;8.20;;;15.80;99.90;;;;;;5062567;28;20515;-81
2021/08/26 09:54:35;;;;;;;8.10;7.47;;;15.70;99.90;;;;;;5056935;28;20480;-80
2021/08/26 09:57:04;;;;;;;8.53;7.73;;;15.80;99.90;;;;;;5064542;28;20221;-82
2021/08/26 09:59:50;;;;;;;10.27;8.23;;;16.00;99.90;;;;;;5094735;28;20435;-81
2021/08/26 10:02:19;;;;;;;8.97;8.10;;;16.20;99.90;;;;;;5083662;28;20498;-85
2021/08/26 10:04:47;;;;;;;7.43;6.70;;;16.40;99.90;;;;;;5071943;28;20469;-80
2021/08/26 10:07:14;;;;;;;7.90;7.20;;;16.50;99.70;;;;;;5070370;28;20912;-83
2021/08/26 10:09:43;;;;;;;6.77;6.27;;;16.60;98.80;;;;;;5069665;28;20447;-80
2021/08/26 10:12:13;;;;;;;6.37;5.50;;;16.60;98.20;;;;;;5063087;28;20489;-80
2021/08/26 10:14:41;;;;;;;6.87;6.37;;;16.70;97.60;;;;;;5068310;22;20487;-80
2021/08/26 10:17:10;;;;;;;6.40;5.73;;;16.70;96.10;;;;;;5053713;28;20443;-81
2021/08/26 10:19:40;;;;;;;8.90;8.10;;;16.80;96.00;;;;;;5046085;28;20482;-80
2021/08/26 10:22:09;;;;;;;6.90;6.30;;;16.90;96.10;;;;;;5058388;28;20482;-79
2021/08/26 10:24:37;;;;;;;8.23;5.93;;;17.00;96.00;;;;;;5036172;28;20494;-79
2021/08/26 10:27:08;;;;;;;5.63;4.83;;;17.20;94.20;;;;;;5001162;28;20459;-78
2021/08/26 10:29:38;;;;;;;5.90;5.40;;;17.50;92.50;;;;;;4993654;28;20462;-78
2021/08/26 10:32:06;;;;;;;5.70;5.13;;;17.80;91.60;;;;;;5011318;28;20522;-79
2021/08/26 10:34:34;;;;;;;6.43;5.73;;;18.10;90.60;;;;;;5019213;28;20570;-79
2021/08/26 10:37:20;;;;;;;5.90;5.40;;;18.20;84.50;;;;;;5027974;28;20454;-79
2021/08/26 10:39:50;;;;;;;6.10;5.50;;;18.30;82.30;;;;;;5046190;28;20478;-80
2021/08/26 10:42:45;;;;;;;5.57;5.07;;;18.60;81.90;;;;;;5005516;28;20466;-79
2021/08/26 10:45:24;;;;;;;5.00;4.60;;;18.70;79.10;;;;;;5005123;28;20451;-80
2021/08/26 10:48:16;;;;;;;5.50;4.67;;;18.90;78.90;;;;;;5005367;28;20430;-79
2021/08/26 10:50:48;;;;;;;4.33;3.93;;;19.00;78.30;;;;;;5002742;28;20555;-79
2021/08/26 10:53:27;;;;;;;5.37;4.87;;;19.10;76.70;;;;;;5003163;28;20407;-80
2021/08/26 10:55:55;;;;;;;4.57;4.17;;;19.10;74.80;;;;;;4999858;28;20486;-78
2021/08/26 10:58:38;;;;;;;4.70;4.20;;;19.10;74.30;;;;;;4995442;28;20546;-78
2021/08/26 11:01:07;;;;;;;4.97;4.47;;;19.20;72.60;;;;;;4996959;28;20465;-78
2021/08/26 11:04:00;;;;;;;4.50;4.10;;;19.30;74.10;;;;;;5000313;28;20642;-78
2021/08/26 11:06:48;;;;;;;4.50;4.00;;;19.30;73.40;;;;;;5008245;28;20469;-79
2021/08/26 11:09:34;;;;;;;4.60;4.20;;;19.20;71.10;;;;;;5024589;28;20487;-80
2021/08/26 11:12:24;;;;;;;5.23;4.33;;;19.00;73.00;;;;;;5013603;28;20486;-81
2021/08/26 11:14:52;;;;;;;4.50;3.90;;;18.50;74.70;;;;;;5021182;28;20942;-79
2021/08/26 11:17:33;;;;;;;6.73;4.20;;;18.50;73.60;;;;;;5011890;28;20448;-80
2021/08/26 11:20:30;;;;;;;5.07;4.53;;;18.30;75.10;;;;;;5014268;28;20478;-80
2021/08/26 11:23:14;;;;;;;4.80;4.40;;;18.00;77.30;;;;;;5014683;28;20469;-80
2021/08/26 11:25:42;;;;;;;5.47;4.97;;;18.20;79.50;;;;;;5035024;28;20445;-79
2021/08/26 11:28:32;;;;;;;6.37;5.73;;;18.40;76.90;;;;;;5035353;28;20621;-80
2021/08/26 11:31:20;;;;;;;5.40;4.80;;;18.70;73.70;;;;;;5035090;28;20478;-81
2021/08/26 11:33:48;;;;;;;7.43;5.37;;;19.20;71.50;;;;;;5034871;28;20501;-80
2021/08/26 11:36:17;;;;;;;6.27;4.97;;;19.30;70.40;;;;;;5029410;28;20463;-80
2021/08/26 11:38:48;;;;;;;5.47;4.97;;;19.30;68.60;;;;;;5008731;28;20497;-79
2021/08/26 11:41:15;;;;;;;7.20;4.60;;;19.50;70.40;;;;;;5001894;28;20539;-79
2021/08/26 11:43:43;;;;;;;6.47;5.27;;;19.90;67.70;;;;;;5019477;28;20538;-80
2021/08/26 11:46:15;;;;;;;6.13;5.57;;;20.20;64.90;;;;;;5019729;28;20454;-78
2021/08/26 11:48:53;;;;;;;8.37;5.47;;;20.30;63.20;;;;;;5019316;28;20434;-79
2021/08/26 11:51:29;;;;;;;5.33;4.83;;;20.40;62.00;;;;;;5022400;28;20538;-79
2021/08/26 11:54:11;;;;;;;6.47;4.93;;;20.50;61.80;;;;;;5024288;28;20486;-79
2021/08/26 11:56:43;;;;;;;5.30;4.80;;;20.30;61.50;;;;;;5026479;28;20466;-80
2021/08/26 11:59:23;;;;;;;5.90;5.30;;;20.40;61.90;;;;;;5027715;28;20461;-80
2021/08/26 12:01:50;;;;;;;5.60;4.80;;;20.60;61.60;;;;;;5027110;28;20456;-80
2021/08/26 12:04:17;;;;;;;5.90;4.77;;;20.80;59.30;;;;;;5026448;28;20498;-77
2021/08/26 12:06:49;;;;;;;7.67;5.23;;;20.40;61.70;;;;;;5022760;28;20517;-78
2021/08/26 12:09:18;;;;;;;6.77;5.17;;;20.40;62.10;;;;;;5025837;28;20486;-77
2021/08/26 12:11:45;;;;;;;5.20;4.80;;;20.30;61.80;;;;;;5037371;28;20486;-77
2021/08/26 12:14:12;;;;;;;7.30;4.30;;;20.60;59.20;;;;;;5034675;28;20482;-76
2021/08/26 12:16:41;;;;;;;4.57;4.17;;;20.90;59.40;;;;;;5031123;28;20455;-76
2021/08/26 12:19:08;;;;;;;4.80;4.40;;;21.10;56.10;;;;;;5023245;28;20539;-75
2021/08/26 12:21:36;;;;;;;8.10;5.13;;;21.40;55.10;;;;;;5021594;28;20457;-79
2021/08/26 12:24:03;;;;;;;4.77;4.30;;;21.40;54.30;;;;;;5018358;28;20483;-77
2021/08/26 12:26:37;;;;;;;4.70;4.30;;;21.20;53.60;;;;;;5037933;28;20441;-77
2021/08/26 12:29:04;;;;;;;5.73;4.20;;;21.10;55.20;;;;;;5030822;28;20522;-78
2021/08/26 12:31:39;;;;;;;5.13;4.63;;;21.30;55.30;;;;;;5037856;28;20442;-77
2021/08/26 12:34:08;;;;;;;5.43;4.87;;;21.40;53.80;;;;;;5038269;28;20478;-75
2021/08/26 12:36:37;;;;;;;5.33;4.63;;;21.20;53.80;;;;;;5021172;28;20500;-75
2021/08/26 12:39:15;;;;;;;4.70;4.23;;;21.30;53.50;;;;;;5007476;28;20449;-76
2021/08/26 12:41:43;;;;;;;5.40;4.67;;;21.30;54.20;;;;;;5009821;28;20431;-76
2021/08/26 12:44:27;;;;;;;4.10;3.70;;;21.10;54.10;;;;;;5023245;28;20476;-76
2021/08/26 12:46:54;;;;;;;7.87;3.77;;;21.10;54.50;;;;;;5017409;28;20459;-77
2021/08/26 12:49:21;;;;;;;5.23;4.60;;;21.00;53.70;;;;;;5006720;28;20958;-77
2021/08/26 12:51:54;;;;;;;4.50;4.10;;;21.00;54.30;;;;;;5004324;28;20523;-78
2021/08/26 12:54:22;;;;;;;4.30;3.90;;;20.70;54.40;;;;;;5001027;28;20484;-78
2021/08/26 12:56:54;;;;;;;5.53;4.10;;;20.80;55.10;;;;;;5025587;28;20463;-77
2021/08/26 12:59:22;;;;;;;4.00;3.70;;;21.20;54.90;;;;;;5008348;28;20472;-77